Time;durP1;ratioP1;P1;durP2;ratioP2;P2;SDS_P1;SDS_P2;PMS_P1;PMS_P2;Temp;Humidity;BMP_temperature;BMP_pressure;BME280_temperature;BME280_humidity;BME280_pressure;Samples;Min_cycle;Max_cycle;Signal;HPM_P1;HPM_P2
2023/11/02 00:00:34;;;;;;;4.22;1.08;;;;;;;9.53;100.00;98916.72;5085567;28;20047;-74
2023/11/02 00:03:03;;;;;;;2.05;1.05;;;;;;;9.56;100.00;98902.59;5093925;28;20322;-75
2023/11/02 00:05:55;;;;;;;4.60;1.25;;;;;;;9.55;100.00;98893.06;5088012;28;20045;-75
2023/11/02 00:08:21;;;;;;;4.30;1.50;;;;;;;9.54;100.00;98894.03;5094185;28;20032;-74
2023/11/02 00:10:47;;;;;;;2.00;1.05;;;;;;;9.56;100.00;98879.06;5078168;28;20432;-74
2023/11/02 00:13:27;;;;;;;4.50;1.38;;;;;;;9.54;100.00;98867.88;5092280;28;20036;-75
2023/11/02 00:15:53;;;;;;;12.50;1.70;;;;;;;9.54;100.00;98862.66;5077390;28;20323;-75
2023/11/02 00:18:19;;;;;;;5.47;1.30;;;;;;;9.58;100.00;98856.28;5079387;28;20040;-75
2023/11/02 00:20:44;;;;;;;1.27;1.17;;;;;;;9.63;100.00;98853.38;5079665;28;20046;-74
2023/11/02 00:23:12;;;;;;;7.53;1.40;;;;;;;9.60;100.00;98843.94;5093133;28;20335;-75
2023/11/02 00:25:54;;;;;;;6.95;1.70;;;;;;;9.61;100.00;98835.16;5072397;28;20204;-75
2023/11/02 00:28:20;;;;;;;4.30;1.48;;;;;;;9.59;100.00;98810.94;5093935;28;20053;-75
2023/11/02 00:30:48;;;;;;;5.35;1.73;;;;;;;9.58;100.00;98793.56;5078212;28;20056;-74
2023/11/02 00:33:14;;;;;;;5.47;1.13;;;;;;;9.58;100.00;98780.50;5092261;28;20044;-74
2023/11/02 00:35:53;;;;;;;2.85;0.90;;;;;;;9.60;100.00;98773.38;5078118;28;20051;-74
2023/11/02 00:38:18;;;;;;;;;;;;;;;9.57;100.00;98766.59;5091181;28;20039;-75
2023/11/02 00:40:44;;;;;;;10.02;1.90;;;;;;;9.60;100.00;98765.53;5076601;28;19919;-75
2023/11/02 00:43:09;;;;;;;4.60;1.17;;;;;;;9.58;100.00;98755.19;5095166;28;20054;-75
2023/11/02 00:45:41;;;;;;;8.02;1.60;;;;;;;9.59;100.00;98751.66;5093023;28;20046;-75
2023/11/02 00:48:14;;;;;;;2.58;1.10;;;;;;;9.59;100.00;98753.44;5090223;28;20036;-75
2023/11/02 00:51:08;;;;;;;2.75;1.30;;;;;;;9.61;100.00;98749.75;5099663;28;20092;-75
2023/11/02 00:53:36;;;;;;;2.92;0.80;;;;;;;9.67;100.00;98742.44;5087003;28;20040;-75
2023/11/02 00:56:06;;;;;;;10.60;1.60;;;;;;;9.67;100.00;98732.81;5080964;28;20209;-75
2023/11/02 00:58:31;;;;;;;5.78;1.40;;;;;;;9.69;100.00;98714.41;5090115;28;20109;-75
2023/11/02 01:01:08;;;;;;;5.18;1.58;;;;;;;9.68;100.00;98710.09;5082531;28;20087;-75
2023/11/02 01:03:34;;;;;;;6.75;1.40;;;;;;;9.68;100.00;98697.03;5082772;28;20040;-75
2023/11/02 01:06:00;;;;;;;3.92;1.23;;;;;;;9.69;100.00;98689.09;5097826;28;20058;-75
2023/11/02 01:08:30;;;;;;;7.82;1.90;;;;;;;9.69;100.00;98683.88;5089016;28;20036;-75
2023/11/02 01:10:56;;;;;;;9.93;1.40;;;;;;;9.72;100.00;98675.81;5093650;28;20223;-75
2023/11/02 01:13:21;;;;;;;10.38;1.67;;;;;;;9.72;100.00;98665.38;5079739;28;20032;-75
2023/11/02 01:15:58;;;;;;;2.97;1.23;;;;;;;9.73;100.00;98659.19;5092041;28;20389;-74
2023/11/02 01:18:23;;;;;;;4.45;1.45;;;;;;;9.74;100.00;98649.56;5099513;28;20036;-74
2023/11/02 01:21:09;;;;;;;7.43;1.65;;;;;;;9.71;100.00;98639.34;5097319;28;20242;-74
2023/11/02 01:23:36;;;;;;;3.55;0.95;;;;;;;9.73;100.00;98614.78;5078666;28;20060;-74
2023/11/02 01:26:03;;;;;;;4.70;1.08;;;;;;;9.75;100.00;98609.41;5088842;28;20038;-74
2023/11/02 01:28:54;;;;;;;3.13;0.90;;;;;;;9.74;100.00;98595.50;5093322;28;20037;-74
2023/11/02 01:31:21;;;;;;;3.65;1.10;;;;;;;9.76;100.00;98579.72;5084454;28;20024;-74
2023/11/02 01:34:01;;;;;;;3.40;1.20;;;;;;;9.74;100.00;98565.94;5097356;28;20055;-74
2023/11/02 01:36:35;;;;;;;3.38;1.40;;;;;;;9.75;100.00;98546.66;5086708;28;20031;-74
2023/11/02 01:39:21;;;;;;;5.32;1.30;;;;;;;9.75;100.00;98542.28;5079240;28;20372;-74
2023/11/02 01:41:52;;;;;;;6.78;1.60;;;;;;;9.79;100.00;98519.38;5033906;28;20306;-75
2023/11/02 01:44:20;;;;;;;7.82;1.27;;;;;;;9.79;100.00;98485.41;5099173;28;20050;-75
2023/11/02 01:46:54;;;;;;;5.70;1.13;;;;;;;9.80;100.00;98481.81;5094629;28;20264;-74
2023/11/02 01:49:51;;;;;;;3.38;1.35;;;;;;;9.82;100.00;98468.63;5087288;28;20067;-74
2023/11/02 01:52:37;;;;;;;3.50;1.02;;;;;;;9.83;100.00;98438.94;5087221;28;20069;-74
2023/11/02 01:55:35;;;;;;;5.07;1.38;;;;;;;9.79;100.00;98428.72;5095033;28;20062;-74
2023/11/02 01:58:24;;;;;;;3.70;1.10;;;;;;;9.80;100.00;98406.00;5087516;28;20039;-74
2023/11/02 02:04:27;;;;;;;6.45;1.45;;;;;;;9.74;100.00;98383.78;5030799;22;20612;-74
2023/11/02 02:07:09;;;;;;;5.93;1.27;;;;;;;9.71;100.00;98373.56;5074159;28;20518;-74
2023/11/02 02:10:11;;;;;;;9.50;1.75;;;;;;;9.73;100.00;98365.59;5073790;28;20068;-74
2023/11/02 02:12:59;;;;;;;2.72;1.10;;;;;;;9.71;100.00;98357.06;5054767;28;20090;-74
2023/11/02 02:15:37;;;;;;;6.95;1.10;;;;;;;9.70;100.00;98355.41;5048856;28;20312;-74
2023/11/02 02:18:05;;;;;;;5.97;1.40;;;;;;;9.72;100.00;98359.56;5075136;28;20044;-73
2023/11/02 02:20:33;;;;;;;3.97;1.00;;;;;;;9.79;100.00;98355.53;5075050;28;20036;-72
2023/11/02 02:23:08;;;;;;;6.63;1.20;;;;;;;9.90;100.00;98338.19;5075099;28;20312;-73
2023/11/02 02:25:53;;;;;;;2.92;0.95;;;;;;;9.92;100.00;98324.03;5073939;28;20246;-73
2023/11/02 02:28:50;;;;;;;5.15;1.20;;;;;;;9.96;100.00;98311.56;5074619;28;20090;-73
2023/11/02 02:31:36;;;;;;;4.05;1.20;;;;;;;9.93;100.00;98307.41;5074543;28;20079;-74
2023/11/02 02:34:30;;;;;;;7.47;2.35;;;;;;;9.92;100.00;98276.97;5074679;28;20269;-74
2023/11/02 02:37:14;;;;;;;6.07;1.48;;;;;;;9.96;100.00;98252.25;5074853;28;20356;-75
2023/11/02 02:39:43;;;;;;;7.43;1.20;;;;;;;9.95;100.00;98241.91;5074158;28;20358;-75
2023/11/02 02:42:13;;;;;;;6.50;1.20;;;;;;;9.94;100.00;98243.69;5073932;28;20322;-75
2023/11/02 02:44:41;;;;;;;6.85;1.33;;;;;;;9.97;100.00;98255.72;5073938;28;20021;-74
2023/11/02 02:47:08;;;;;;;4.77;1.40;;;;;;;9.99;100.00;98252.00;5074215;28;20032;-74
2023/11/02 02:49:39;;;;;;;5.32;1.42;;;;;;;10.02;100.00;98221.34;5074239;28;20035;-73
2023/11/02 02:52:07;;;;;;;4.97;1.10;;;;;;;9.99;100.00;98231.09;5074233;28;20227;-73
2023/11/02 02:54:38;;;;;;;4.93;1.27;;;;;;;10.02;100.00;98222.16;5074058;28;20423;-74
2023/11/02 02:57:07;;;;;;;8.30;1.67;;;;;;;10.02;100.00;98206.47;5074195;28;20036;-75
2023/11/02 02:59:39;;;;;;;2.63;1.02;;;;;;;10.06;100.00;98183.53;5073810;28;20093;-73
2023/11/02 03:02:08;;;;;;;2.50;1.17;;;;;;;10.07;100.00;98172.94;5074298;28;20103;-74
2023/11/02 03:04:34;;;;;;;2.58;0.90;;;;;;;10.07;100.00;98151.19;5087209;28;20044;-74
2023/11/02 03:07:01;;;;;;;8.88;1.15;;;;;;;10.04;100.00;98138.38;5082873;28;20246;-74
2023/11/02 03:09:31;;;;;;;3.22;0.95;;;;;;;10.01;100.00;98122.94;5077840;28;20110;-74
2023/11/02 03:12:03;;;;;;;9.05;1.10;;;;;;;9.99;100.00;98100.38;5073713;28;20048;-74
2023/11/02 03:14:30;;;;;;;7.43;1.77;;;;;;;10.01;100.00;98089.78;5075271;28;20342;-74
2023/11/02 03:17:05;;;;;;;6.25;1.48;;;;;;;9.95;100.00;98082.44;5074390;28;20271;-74
2023/11/02 03:19:47;;;;;;;6.88;1.35;;;;;;;9.94;100.00;98071.16;5073658;28;20107;-74
2023/11/02 03:22:15;;;;;;;5.63;1.48;;;;;;;9.92;100.00;98070.44;5074249;28;20040;-74
2023/11/02 03:25:07;;;;;;;9.63;1.13;;;;;;;9.91;100.00;98079.22;5073583;28;20051;-74
2023/11/02 03:27:54;;;;;;;6.60;1.08;;;;;;;9.94;100.00;98078.16;5073436;28;20187;-74
2023/11/02 03:30:47;;;;;;;7.00;1.13;;;;;;;9.93;100.00;98066.88;5073698;28;20029;-74
2023/11/02 03:33:37;;;;;;;7.10;0.90;;;;;;;9.96;100.00;98032.63;5073782;28;20093;-74
2023/11/02 03:36:07;;;;;;;8.25;1.40;;;;;;;9.94;100.00;97984.06;5073616;28;20060;-74
2023/11/02 03:38:51;;;;;;;2.75;0.85;;;;;;;9.92;100.00;97959.84;5073944;28;20363;-74
2023/11/02 03:41:32;;;;;;;8.23;1.35;;;;;;;9.99;100.00;97960.97;5073090;28;20040;-74
2023/11/02 03:44:23;;;;;;;5.70;1.45;;;;;;;9.94;100.00;97957.91;5073849;28;20133;-74
2023/11/02 03:47:07;;;;;;;3.75;1.20;;;;;;;9.97;100.00;97939.38;5073707;28;20037;-74
2023/11/02 03:49:44;;;;;;;6.93;1.20;;;;;;;9.97;100.00;97945.41;5073489;28;20220;-74
2023/11/02 03:52:33;;;;;;;5.53;1.75;;;;;;;9.97;100.00;97936.75;5073948;28;20040;-74
2023/11/02 03:55:10;;;;;;;5.93;1.33;;;;;;;9.97;100.00;97914.03;5076249;28;20270;-73
2023/11/02 03:58:16;;;;;;;8.00;2.17;;;;;;;9.99;100.00;97908.69;5093889;28;20031;-74
2023/11/02 04:01:18;;;;;;;2.65;1.10;;;;;;;9.99;100.00;97882.53;5030494;28;20037;-74
2023/11/02 04:03:46;;;;;;;4.75;1.08;;;;;;;9.98;100.00;97862.56;4986248;28;20182;-74
2023/11/02 04:06:19;;;;;;;6.10;1.00;;;;;;;9.98;100.00;97833.81;5093760;28;20055;-74
2023/11/02 04:08:49;;;;;;;5.30;1.00;;;;;;;9.96;100.00;97810.41;5093582;28;20102;-74
2023/11/02 04:11:23;;;;;;;4.07;1.65;;;;;;;9.99;100.00;97798.88;5087114;28;20480;-73
2023/11/02 04:13:57;;;;;;;6.57;1.10;;;;;;;9.99;100.00;97799.69;5089168;28;20036;-74
2023/11/02 04:16:25;;;;;;;4.90;0.80;;;;;;;10.01;100.00;97809.22;5089509;28;20105;-73
2023/11/02 04:18:50;;;;;;;4.93;0.80;;;;;;;10.02;100.00;97792.53;5078417;28;20056;-74
2023/11/02 04:21:15;;;;;;;3.08;1.30;;;;;;;10.04;100.00;97780.16;5073170;28;20316;-73
2023/11/02 04:23:41;;;;;;;5.85;1.15;;;;;;;10.06;100.00;97776.47;5073269;28;20047;-74
2023/11/02 04:26:07;;;;;;;4.53;1.38;;;;;;;10.08;100.00;97777.16;5058806;28;20028;-73
2023/11/02 04:28:33;;;;;;;3.58;0.95;;;;;;;10.06;100.00;97771.25;5077052;28;20043;-73
2023/11/02 04:30:58;;;;;;;2.67;0.88;;;;;;;10.08;100.00;97764.09;5077292;28;20081;-73
2023/11/02 04:33:24;;;;;;;7.35;0.98;;;;;;;10.10;100.00;97748.28;5077209;28;20370;-74
2023/11/02 04:35:49;;;;;;;4.18;0.80;;;;;;;10.09;100.00;97752.66;5076724;28;20047;-74
2023/11/02 04:38:15;;;;;;;2.00;0.80;;;;;;;10.08;100.00;97744.97;5077026;28;20074;-73
2023/11/02 04:40:41;;;;;;;3.00;0.77;;;;;;;10.06;100.00;97732.03;5076546;28;20036;-74
2023/11/02 04:43:06;;;;;;;7.22;1.17;;;;;;;10.07;100.00;97722.38;5076954;28;20210;-74
2023/11/02 04:45:34;;;;;;;1.38;0.68;;;;;;;10.08;100.00;97719.63;5076406;28;20043;-74
2023/11/02 04:47:59;;;;;;;5.07;0.95;;;;;;;10.09;100.00;97723.06;5077251;28;20105;-74
2023/11/02 04:50:25;;;;;;;9.93;0.80;;;;;;;10.08;100.00;97717.03;5076729;28;20032;-74
2023/11/02 04:52:52;;;;;;;5.55;1.08;;;;;;;10.08;100.00;97708.38;5076669;28;20056;-74
2023/11/02 04:55:17;;;;;;;6.10;1.05;;;;;;;10.09;100.00;97696.94;5076502;28;20044;-74
2023/11/02 04:57:43;;;;;;;3.42;0.95;;;;;;;10.09;100.00;97681.22;5076470;28;20032;-74
2023/11/02 05:00:09;;;;;;;5.40;0.63;;;;;;;10.08;100.00;97677.81;5076223;28;20040;-73
2023/11/02 05:02:35;;;;;;;3.10;0.73;;;;;;;10.11;100.00;97676.69;5076451;28;20055;-73
2023/11/02 05:05:00;;;;;;;3.70;0.80;;;;;;;10.10;100.00;97662.81;5076363;28;20052;-73
2023/11/02 05:07:26;;;;;;;3.72;0.95;;;;;;;10.09;100.00;97650.69;5077002;28;20048;-73
2023/11/02 05:09:51;;;;;;;3.03;0.90;;;;;;;10.11;100.00;97632.25;5076777;28;20032;-73
2023/11/02 05:12:17;;;;;;;2.90;0.90;;;;;;;10.13;100.00;97619.84;5076453;28;20330;-73
2023/11/02 05:14:45;;;;;;;3.35;0.75;;;;;;;10.13;100.00;97614.63;5076414;28;20107;-73
2023/11/02 05:17:11;;;;;;;4.32;1.33;;;;;;;10.10;100.00;97597.44;5076819;28;20063;-73
2023/11/02 05:19:37;;;;;;;2.45;0.70;;;;;;;10.10;100.00;97607.06;5084997;28;20160;-73
2023/11/02 05:22:03;;;;;;;1.25;0.50;;;;;;;10.09;100.00;97606.22;5082052;28;20043;-73
2023/11/02 05:24:29;;;;;;;2.95;0.85;;;;;;;10.09;100.00;97590.53;5087814;28;20030;-73
2023/11/02 05:26:54;;;;;;;3.33;0.80;;;;;;;10.10;100.00;97584.34;5083547;28;20127;-73
2023/11/02 05:29:21;;;;;;;5.40;0.77;;;;;;;10.09;100.00;97577.47;5075782;28;20024;-73
2023/11/02 05:31:46;;;;;;;1.83;0.77;;;;;;;10.08;100.00;97562.75;5076198;28;20044;-73
2023/11/02 05:34:12;;;;;;;3.80;1.08;;;;;;;10.07;100.00;97553.25;5076190;28;20078;-73
2023/11/02 05:36:37;;;;;;;3.83;1.10;;;;;;;10.08;100.00;97538.41;5082165;28;20248;-73
2023/11/02 05:39:05;;;;;;;2.35;0.60;;;;;;;10.07;100.00;97539.38;5081703;28;20253;-73
2023/11/02 05:41:31;;;;;;;2.30;0.70;;;;;;;10.05;100.00;97534.28;5078932;28;20305;-74
2023/11/02 05:43:56;;;;;;;3.67;0.75;;;;;;;10.02;100.00;97531.09;5079200;28;20484;-71
2023/11/02 05:46:21;;;;;;;4.30;1.25;;;;;;;10.02;100.00;97513.63;5083144;28;20042;-71
2023/11/02 05:48:47;;;;;;;5.45;1.08;;;;;;;10.03;100.00;97511.84;5064530;28;20086;-71
2023/11/02 05:51:13;;;;;;;4.95;0.70;;;;;;;10.03;100.00;97497.00;5078217;28;20047;-72
2023/11/02 05:53:38;;;;;;;1.17;0.52;;;;;;;9.97;100.00;97490.53;5094261;28;20066;-72
2023/11/02 05:56:04;;;;;;;1.40;0.50;;;;;;;10.02;100.00;97470.97;5081795;28;20032;-72
2023/11/02 05:58:29;;;;;;;3.60;0.52;;;;;;;9.99;100.00;97466.88;5078768;28;20020;-72
2023/11/02 06:00:54;;;;;;;2.63;1.00;;;;;;;9.98;100.00;97457.38;5078110;28;20493;-73
2023/11/02 06:03:20;;;;;;;6.53;0.52;;;;;;;9.96;100.00;97454.88;5076848;28;20074;-74
2023/11/02 06:05:46;;;;;;;1.08;0.50;;;;;;;9.92;100.00;97432.63;5075185;28;20056;-74
2023/11/02 06:08:11;;;;;;;0.95;0.68;;;;;;;9.88;100.00;97420.81;5075456;28;20090;-73
2023/11/02 06:10:37;;;;;;;2.35;0.60;;;;;;;9.82;100.00;97421.34;5074767;28;20032;-74
2023/11/02 06:13:02;;;;;;;1.63;0.70;;;;;;;9.82;100.00;97421.34;5057268;28;20025;-74
2023/11/02 06:15:28;;;;;;;1.08;0.65;;;;;;;9.78;100.00;97405.13;5074832;28;20082;-73
2023/11/02 06:17:53;;;;;;;2.30;0.50;;;;;;;9.84;100.00;97405.53;5075792;28;20077;-74
2023/11/02 06:20:19;;;;;;;4.10;0.70;;;;;;;9.84;100.00;97401.16;5090364;28;20338;-74
2023/11/02 06:22:44;;;;;;;2.35;0.73;;;;;;;9.86;100.00;97408.81;5083525;28;20035;-73
2023/11/02 06:25:11;;;;;;;3.83;0.85;;;;;;;9.88;100.00;97414.78;5093063;28;20028;-74
2023/11/02 06:27:36;;;;;;;0.90;0.52;;;;;;;9.86;100.00;97394.00;5089559;28;20086;-73
2023/11/02 06:30:01;;;;;;;3.33;0.82;;;;;;;9.88;100.00;97372.94;5078945;28;20028;-73
2023/11/02 06:32:27;;;;;;;2.55;0.75;;;;;;;9.87;100.00;97361.66;5083565;28;20331;-73
2023/11/02 06:34:52;;;;;;;1.48;0.63;;;;;;;9.89;100.00;97353.66;5080527;28;20086;-73
2023/11/02 06:37:20;;;;;;;6.88;0.93;;;;;;;9.89;100.00;97338.00;5087796;28;20023;-74
2023/11/02 06:39:46;;;;;;;3.72;0.75;;;;;;;9.91;100.00;97344.72;5092762;28;20097;-74
2023/11/02 06:42:14;;;;;;;4.65;1.00;;;;;;;9.87;100.00;97332.09;5091807;28;20092;-73
2023/11/02 06:44:43;;;;;;;1.23;0.88;;;;;;;9.88;100.00;97339.78;5094377;28;20050;-74
2023/11/02 06:47:12;;;;;;;1.83;0.60;;;;;;;9.87;100.00;97330.28;5064531;28;20032;-73
2023/11/02 06:49:37;;;;;;;3.63;1.10;;;;;;;9.89;100.00;97317.06;5074368;28;20120;-73
2023/11/02 06:52:04;;;;;;;1.33;0.60;;;;;;;9.89;100.00;97317.06;5080159;28;20028;-73
2023/11/02 06:54:29;;;;;;;3.58;0.80;;;;;;;9.88;100.00;97316.25;5091627;28;20035;-74
2023/11/02 06:56:55;;;;;;;3.63;0.70;;;;;;;9.91;100.00;97308.13;5085602;28;20093;-73
2023/11/02 06:59:20;;;;;;;0.90;0.60;;;;;;;9.94;100.00;97301.78;5089801;28;20040;-74
2023/11/02 07:01:49;;;;;;;1.55;0.60;;;;;;;9.97;100.00;97304.13;5086558;28;20040;-73
2023/11/02 07:04:15;;;;;;;2.88;0.65;;;;;;;9.98;100.00;97309.19;5084850;28;20032;-74
2023/11/02 07:06:40;;;;;;;2.28;0.57;;;;;;;9.99;100.00;97297.78;5086290;28;20099;-73
2023/11/02 07:09:06;;;;;;;3.85;0.73;;;;;;;10.01;100.00;97297.63;5084262;28;20024;-73
2023/11/02 07:11:31;;;;;;;3.03;0.90;;;;;;;10.02;100.00;97283.56;5066518;28;20081;-73
2023/11/02 07:13:57;;;;;;;3.33;0.88;;;;;;;10.07;100.00;97277.91;5077609;28;20374;-74
2023/11/02 07:16:23;;;;;;;4.57;0.88;;;;;;;10.09;100.00;97281.22;5080754;28;20050;-73
2023/11/02 07:18:49;;;;;;;1.40;0.70;;;;;;;10.09;100.00;97276.78;5085444;28;20036;-73
2023/11/02 07:21:14;;;;;;;3.13;0.52;;;;;;;10.10;100.00;97275.84;5088341;28;20032;-74
2023/11/02 07:23:39;;;;;;;4.40;1.10;;;;;;;10.10;100.00;97257.53;5086906;28;20032;-73
2023/11/02 07:26:08;;;;;;;5.85;1.55;;;;;;;10.12;100.00;97260.00;5089638;28;20043;-73
2023/11/02 07:28:34;;;;;;;4.28;0.70;;;;;;;10.13;100.00;97251.19;5092458;28;20028;-73
2023/11/02 07:30:59;;;;;;;7.22;0.68;;;;;;;10.15;100.00;97236.16;5091714;28;20055;-73
2023/11/02 07:33:24;;;;;;;2.88;0.90;;;;;;;10.14;100.00;97227.50;5093101;28;20363;-74
2023/11/02 07:35:50;;;;;;;2.47;0.93;;;;;;;10.15;100.00;97226.56;5092004;28;20050;-74
2023/11/02 07:38:17;;;;;;;3.85;1.48;;;;;;;10.16;100.00;97224.75;5090643;28;20050;-74
2023/11/02 07:40:42;;;;;;;2.65;1.00;;;;;;;10.16;100.00;97214.28;5086694;28;20040;-74
2023/11/02 07:43:07;;;;;;;4.18;1.10;;;;;;;10.15;100.00;97205.63;5091905;28;20409;-74
2023/11/02 07:45:33;;;;;;;4.13;1.20;;;;;;;10.16;100.00;97209.06;5088311;28;20388;-74
2023/11/02 07:47:58;;;;;;;3.75;1.10;;;;;;;10.19;100.00;97204.34;5075949;28;20136;-74
2023/11/02 07:50:24;;;;;;;3.08;0.90;;;;;;;10.23;100.00;97185.75;5092651;28;20036;-74
2023/11/02 07:52:49;;;;;;;5.28;1.00;;;;;;;10.24;100.00;97180.38;5085093;28;20402;-74
2023/11/02 07:55:15;;;;;;;4.80;1.02;;;;;;;10.22;100.00;97177.06;5082396;28;20242;-74
2023/11/02 07:57:40;;;;;;;5.90;1.20;;;;;;;10.27;100.00;97184.47;5083299;28;20036;-74
2023/11/02 08:00:06;;;;;;;4.00;1.55;;;;;;;10.25;100.00;97189.88;5090857;28;20346;-74
2023/11/02 08:02:31;;;;;;;4.35;0.77;;;;;;;10.29;100.00;97187.78;5090640;28;20380;-74
2023/11/02 08:04:57;;;;;;;4.25;1.05;;;;;;;10.29;100.00;97172.06;5062250;28;1107506;-74
2023/11/02 08:07:22;;;;;;;3.30;0.88;;;;;;;10.29;100.00;97162.44;5098662;28;20042;-74
2023/11/02 08:09:48;;;;;;;3.92;0.90;;;;;;;10.30;100.00;97173.72;5105566;28;20030;-74
2023/11/02 08:12:15;;;;;;;3.55;0.93;;;;;;;10.28;100.00;97160.81;5110971;28;20019;-74
2023/11/02 08:14:41;;;;;;;5.80;1.27;;;;;;;10.27;100.00;97155.72;5113327;28;20053;-74
2023/11/02 08:17:06;;;;;;;1.90;0.73;;;;;;;10.28;100.00;97150.34;5100515;28;20039;-74
2023/11/02 08:19:31;;;;;;;12.75;1.40;;;;;;;10.31;100.00;97147.44;5111883;28;20012;-74
2023/11/02 08:21:57;;;;;;;5.47;1.00;;;;;;;10.33;100.00;97142.06;5114496;28;20396;-73
2023/11/02 08:24:22;;;;;;;4.32;1.00;;;;;;;10.35;100.00;97124.41;5110818;28;20098;-74
2023/11/02 08:26:48;;;;;;;5.45;0.98;;;;;;;10.37;100.00;97120.69;5104466;28;20096;-74
2023/11/02 08:29:13;;;;;;;7.30;1.17;;;;;;;10.37;100.00;97117.28;5091930;28;20058;-74
2023/11/02 08:31:39;;;;;;;9.10;1.30;;;;;;;10.38;100.00;97111.03;5093772;28;20039;-74
2023/11/02 08:34:05;;;;;;;3.97;1.38;;;;;;;10.40;100.00;97103.88;5108806;28;20041;-73
2023/11/02 08:36:34;;;;;;;3.45;0.80;;;;;;;10.43;100.00;97094.91;5109566;28;20110;-73
2023/11/02 08:38:59;;;;;;;5.57;1.13;;;;;;;10.47;100.00;97101.47;5095691;28;20039;-74
2023/11/02 08:41:27;;;;;;;7.68;1.33;;;;;;;10.49;100.00;97087.25;5097094;28;20270;-74
2023/11/02 08:43:52;;;;;;;4.28;1.00;;;;;;;10.51;100.00;97090.56;5069991;28;20135;-74
2023/11/02 08:46:24;;;;;;;5.57;1.40;;;;;;;10.50;100.00;97070.59;5094609;28;20027;-73
2023/11/02 08:48:52;;;;;;;7.25;1.63;;;;;;;10.52;100.00;97075.69;5092495;28;20064;-74
2023/11/02 08:51:19;;;;;;;12.57;1.20;;;;;;;10.53;100.00;97067.69;5090355;28;20035;-73
2023/11/02 08:53:45;;;;;;;4.32;1.10;;;;;;;10.53;100.00;97067.69;5095259;28;20031;-74
2023/11/02 08:56:11;;;;;;;5.05;0.90;;;;;;;10.57;100.00;97070.81;5092905;28;20044;-73
2023/11/02 08:58:44;;;;;;;6.50;1.10;;;;;;;10.55;100.00;97046.56;5087589;28;20290;-73
2023/11/02 09:01:11;;;;;;;7.20;1.10;;;;;;;10.52;100.00;97052.94;5088587;28;20434;-74
2023/11/02 09:03:38;;;;;;;9.75;1.60;;;;;;;10.52;100.00;97058.19;5084841;28;20112;-74
2023/11/02 09:06:06;;;;;;;9.63;1.30;;;;;;;10.52;100.00;97050.31;5065730;28;20052;-74
2023/11/02 09:08:33;;;;;;;6.47;0.90;;;;;;;10.47;100.00;97054.38;5084247;28;20356;-74
2023/11/02 09:10:59;;;;;;;8.07;1.42;;;;;;;10.47;100.00;97043.91;5087601;28;20032;-74
2023/11/02 09:13:24;;;;;;;18.25;1.33;;;;;;;10.45;100.00;97051.09;5088720;28;20384;-75
2023/11/02 09:15:49;;;;;;;7.05;1.20;;;;;;;10.42;100.00;97040.94;5085780;28;20063;-74
2023/11/02 09:18:15;;;;;;;10.93;1.30;;;;;;;10.42;100.00;97028.69;5089619;28;20036;-74
2023/11/02 09:20:40;;;;;;;5.32;1.35;;;;;;;10.41;100.00;97052.41;5093393;28;20036;-74
2023/11/02 09:23:06;;;;;;;7.82;1.60;;;;;;;10.36;100.00;97042.38;5091292;28;20041;-74
2023/11/02 09:25:34;;;;;;;8.05;1.65;;;;;;;10.31;100.00;97039.41;5084612;28;20398;-74
2023/11/02 09:27:59;;;;;;;8.65;1.90;;;;;;;10.31;100.00;97034.16;5086111;28;20060;-74
2023/11/02 09:30:26;;;;;;;6.25;1.50;;;;;;;10.33;100.00;97047.91;5086819;28;20236;-75
2023/11/02 09:32:51;;;;;;;7.47;1.40;;;;;;;10.31;100.00;97050.69;5093397;28;20039;-74
2023/11/02 09:35:17;;;;;;;6.38;1.08;;;;;;;10.32;100.00;97014.91;5080509;28;20474;-74
2023/11/02 09:37:42;;;;;;;11.38;1.60;;;;;;;10.34;100.00;97060.03;5081769;28;20373;-74
2023/11/02 09:40:10;;;;;;;11.15;1.60;;;;;;;10.33;100.00;97038.28;5088262;28;20326;-74
2023/11/02 09:42:36;;;;;;;9.35;1.55;;;;;;;10.30;100.00;97046.41;5093534;28;20250;-74
2023/11/02 09:45:03;;;;;;;7.00;1.23;;;;;;;10.31;100.00;97048.06;5091579;28;20039;-73
2023/11/02 09:47:29;;;;;;;6.55;1.33;;;;;;;10.27;100.00;97031.00;5082247;28;20215;-74
2023/11/02 09:49:55;;;;;;;9.63;1.60;;;;;;;10.25;100.00;97030.34;5091855;28;20032;-74
2023/11/02 09:52:20;;;;;;;10.25;1.80;;;;;;;10.24;100.00;97023.50;5089451;28;20032;-74
2023/11/02 09:54:47;;;;;;;6.60;1.10;;;;;;;10.27;100.00;97032.81;5089531;28;20108;-74
2023/11/02 09:57:13;;;;;;;12.68;1.40;;;;;;;10.25;100.00;97046.03;5084141;28;20073;-74
2023/11/02 09:59:43;;;;;;;8.10;1.58;;;;;;;10.24;100.00;97043.56;5088740;28;20137;-74
2023/11/02 10:02:10;;;;;;;7.97;1.70;;;;;;;10.26;100.00;97031.16;5091265;28;20027;-74
2023/11/02 10:04:35;;;;;;;10.00;1.35;;;;;;;10.25;100.00;97032.97;5086656;28;20366;-74
2023/11/02 10:07:01;;;;;;;7.40;1.92;;;;;;;10.25;100.00;97021.69;5088786;28;20099;-74
2023/11/02 10:09:27;;;;;;;8.25;1.90;;;;;;;10.29;100.00;97010.75;5068333;28;20035;-74
2023/11/02 10:11:53;;;;;;;5.93;1.23;;;;;;;10.31;100.00;96995.75;5083289;28;20063;-74
2023/11/02 10:14:18;;;;;;;13.68;1.77;;;;;;;10.32;100.00;97000.03;5075820;28;20046;-74
2023/11/02 10:16:43;;;;;;;6.10;1.15;;;;;;;10.31;100.00;97008.81;5086835;28;20032;-74
2023/11/02 10:19:09;;;;;;;6.07;1.73;;;;;;;10.29;100.00;96978.56;5089008;28;20274;-74
2023/11/02 10:21:38;;;;;;;6.50;1.20;;;;;;;10.31;100.00;97021.09;5081900;28;20284;-74
2023/11/02 10:24:03;;;;;;;12.68;1.33;;;;;;;10.27;100.00;97007.47;5079142;28;20042;-74
2023/11/02 10:26:29;;;;;;;11.95;1.20;;;;;;;10.30;100.00;97006.38;5083454;28;20063;-74
2023/11/02 10:28:56;;;;;;;10.32;1.17;;;;;;;10.28;100.00;97013.53;5085481;28;20042;-74
2023/11/02 10:31:24;;;;;;;9.00;1.08;;;;;;;10.28;100.00;97016.16;5081977;28;20213;-74
2023/11/02 10:33:50;;;;;;;8.85;1.15;;;;;;;10.28;100.00;97014.34;5076863;28;20097;-73
2023/11/02 10:36:17;;;;;;;5.18;1.23;;;;;;;10.29;100.00;97021.22;5080576;28;20340;-74
2023/11/02 10:38:44;;;;;;;3.90;1.40;;;;;;;10.25;100.00;97022.50;5093626;28;20042;-74
2023/11/02 10:41:14;;;;;;;4.68;1.17;;;;;;;10.26;100.00;96998.00;5086224;28;20028;-74
2023/11/02 10:43:42;;;;;;;12.23;2.13;;;;;;;10.26;100.00;96999.78;5077402;28;20044;-73
2023/11/02 10:46:11;;;;;;;5.97;1.42;;;;;;;10.27;100.00;96985.75;5084996;28;20036;-73
2023/11/02 10:48:40;;;;;;;4.20;1.23;;;;;;;10.29;100.00;96982.00;5090402;28;20064;-74
2023/11/02 10:51:10;;;;;;;8.38;1.50;;;;;;;10.26;100.00;96973.63;5090685;28;20339;-74
2023/11/02 10:53:50;;;;;;;9.27;1.65;;;;;;;10.25;100.00;96972.81;5082264;28;20052;-74
2023/11/02 10:56:23;;;;;;;8.10;1.45;;;;;;;10.25;100.00;96979.84;5087509;28;20044;-74
2023/11/02 10:58:53;;;;;;;8.55;1.23;;;;;;;10.25;100.00;96992.94;5089274;28;20329;-74
2023/11/02 11:01:19;;;;;;;10.55;1.70;;;;;;;10.27;100.00;96990.97;5090536;28;20067;-74
2023/11/02 11:03:47;;;;;;;6.60;1.25;;;;;;;10.28;100.00;96988.22;5084557;28;20048;-74
2023/11/02 11:06:13;;;;;;;7.25;1.35;;;;;;;10.27;100.00;96965.63;5088348;28;20071;-73
2023/11/02 11:08:39;;;;;;;6.47;1.42;;;;;;;10.30;100.00;96972.38;5089248;28;20396;-73
2023/11/02 11:11:05;;;;;;;6.07;1.70;;;;;;;10.32;100.00;96962.59;5091831;28;20036;-73
2023/11/02 11:13:32;;;;;;;6.63;1.25;;;;;;;10.31;100.00;96964.38;5091701;28;20112;-73
2023/11/02 11:15:59;;;;;;;11.65;1.52;;;;;;;10.35;100.00;96977.97;5086376;28;20059;-73
2023/11/02 11:18:24;;;;;;;8.48;1.40;;;;;;;10.40;100.00;96965.25;5090444;28;20032;-74
2023/11/02 11:20:50;;;;;;;5.63;1.42;;;;;;;10.40;100.00;96952.16;5084099;28;20362;-73
2023/11/02 11:23:16;;;;;;;6.32;1.52;;;;;;;10.42;100.00;96968.50;5083229;28;20058;-73
2023/11/02 11:26:04;;;;;;;7.68;0.98;;;;;;;10.44;100.00;96944.81;5079478;28;20042;-73
2023/11/02 11:28:32;;;;;;;7.30;1.45;;;;;;;10.42;100.00;96952.00;5090272;28;20028;-75
2023/11/02 11:31:02;;;;;;;6.88;1.30;;;;;;;10.41;100.00;96951.19;5089771;28;20149;-73
2023/11/02 11:33:48;;;;;;;6.15;1.40;;;;;;;10.41;100.00;96945.97;5084742;28;20215;-76
2023/11/02 11:36:28;;;;;;;6.20;1.90;;;;;;;10.38;100.00;96943.66;5086338;28;20353;-73
2023/11/02 11:38:54;;;;;;;6.93;1.33;;;;;;;10.37;100.00;96953.31;5082765;28;20030;-72
2023/11/02 11:41:45;;;;;;;6.95;1.00;;;;;;;10.37;100.00;96955.91;5076464;28;20476;-72
2023/11/02 11:44:21;;;;;;;7.60;1.17;;;;;;;10.36;100.00;96937.78;5080192;28;20051;-73